createdAt,value
2023-03-13T00:01:33.089Z,6.33
2023-03-13T00:04:00.835Z,6.37
2023-03-13T00:06:34.230Z,6.39
2023-03-13T00:09:03.914Z,6.42
2023-03-13T00:11:31.977Z,6.55
2023-03-13T00:14:03.479Z,6.49
2023-03-13T00:16:31.814Z,6.43
2023-03-13T00:18:59.973Z,6.45
2023-03-13T00:21:29.630Z,6.41
2023-03-13T00:24:00.351Z,6.50
2023-03-13T00:26:29.532Z,6.49
2023-03-13T00:28:57.277Z,6.42
2023-03-13T00:31:28.359Z,6.50
2023-03-13T00:34:01.719Z,6.41
2023-03-13T00:36:33.313Z,6.47
2023-03-13T00:39:01.239Z,6.47
2023-03-13T00:41:33.530Z,6.53
2023-03-13T00:44:19.628Z,6.53
2023-03-13T00:46:46.816Z,6.57
2023-03-13T00:49:14.349Z,6.48
2023-03-13T00:51:41.641Z,6.44
2023-03-13T00:54:10.062Z,6.46
2023-03-13T00:56:37.420Z,6.58
2023-03-13T00:59:05.166Z,6.68
2023-03-13T01:01:37.119Z,6.61
2023-03-13T01:04:12.095Z,6.49
2023-03-13T01:06:45.159Z,6.53
2023-03-13T01:09:15.795Z,6.58
2023-03-13T01:11:45.023Z,6.58
2023-03-13T01:14:18.063Z,6.52
2023-03-13T01:16:45.374Z,6.58
2023-03-13T01:19:16.395Z,6.57
2023-03-13T01:21:45.258Z,6.56
2023-03-13T01:24:12.974Z,6.61
2023-03-13T01:26:40.335Z,6.70
2023-03-13T01:29:07.992Z,6.65
2023-03-13T01:31:36.686Z,6.82
2023-03-13T01:34:06.505Z,6.70
2023-03-13T01:36:36.848Z,6.73
2023-03-13T01:39:05.984Z,6.64
2023-03-13T01:41:33.413Z,6.69
2023-03-13T01:44:01.519Z,6.77
2023-03-13T01:46:32.065Z,6.71
2023-03-13T01:49:08.010Z,6.76
2023-03-13T01:51:48.871Z,6.80
2023-03-13T01:54:39.510Z,6.70
2023-03-13T01:57:29.526Z,6.74
2023-03-13T02:00:08.062Z,6.75
2023-03-13T02:02:38.268Z,6.78
2023-03-13T02:05:08.384Z,6.78
2023-03-13T02:07:50.920Z,6.80
2023-03-13T02:10:22.239Z,6.85
2023-03-13T02:12:51.564Z,6.91
2023-03-13T02:15:23.009Z,6.81
2023-03-13T02:17:50.926Z,6.88
2023-03-13T02:20:22.435Z,6.97
2023-03-13T02:23:28.012Z,6.97
2023-03-13T02:25:56.831Z,6.96
2023-03-13T02:28:35.122Z,6.83
2023-03-13T02:31:03.069Z,6.85
2023-03-13T02:33:37.195Z,6.80
2023-03-13T02:36:07.116Z,6.94
2023-03-13T02:38:53.894Z,6.85
2023-03-13T02:41:24.193Z,6.88
2023-03-13T02:43:51.464Z,6.83
2023-03-13T02:46:21.591Z,6.90
2023-03-13T02:48:55.904Z,6.84
2023-03-13T02:51:45.016Z,6.96
2023-03-13T02:54:24.910Z,6.86
2023-03-13T02:57:00.854Z,6.96
2023-03-13T02:59:28.622Z,6.82
2023-03-13T03:01:56.282Z,6.86
2023-03-13T03:04:26.324Z,6.89
2023-03-13T03:06:54.543Z,6.98
2023-03-13T03:09:23.257Z,6.86
2023-03-13T03:11:51.030Z,6.93
2023-03-13T03:14:18.837Z,7.00
2023-03-13T03:16:46.619Z,6.97
2023-03-13T03:19:14.129Z,6.91
2023-03-13T03:21:41.704Z,6.82
2023-03-13T03:24:09.320Z,6.91
2023-03-13T03:26:37.289Z,6.83
2023-03-13T03:29:04.737Z,6.96
2023-03-13T03:31:32.355Z,6.90
2023-03-13T03:33:59.777Z,6.88
2023-03-13T03:36:27.635Z,6.89
2023-03-13T03:38:55.368Z,6.85
2023-03-13T03:41:22.973Z,6.93
2023-03-13T03:43:50.533Z,6.91
2023-03-13T03:46:18.122Z,7.02
2023-03-13T03:48:45.555Z,6.86
2023-03-13T03:51:14.008Z,6.89
2023-03-13T03:53:41.375Z,6.87
2023-03-13T03:56:09.075Z,6.82
2023-03-13T03:58:36.392Z,6.84
2023-03-13T04:01:04.878Z,6.99
2023-03-13T04:03:32.776Z,6.95
2023-03-13T04:06:00.388Z,7.10
2023-03-13T04:08:27.700Z,7.05
2023-03-13T04:10:55.439Z,6.99
2023-03-13T04:13:22.708Z,7.12
2023-03-13T04:15:50.284Z,7.00
2023-03-13T04:18:17.730Z,7.01
2023-03-13T04:20:45.646Z,6.95
2023-03-13T04:23:13.037Z,7.02
2023-03-13T04:25:40.634Z,7.14
2023-03-13T04:28:08.961Z,7.08
2023-03-13T04:30:36.526Z,7.11
2023-03-13T04:33:04.046Z,7.11
2023-03-13T04:35:32.350Z,7.18
2023-03-13T04:38:01.267Z,7.12
2023-03-13T04:40:29.507Z,7.00
2023-03-13T04:42:56.844Z,7.13
2023-03-13T04:45:24.375Z,7.33
2023-03-13T04:47:51.640Z,7.21
2023-03-13T04:50:19.438Z,7.17
2023-03-13T04:52:49.169Z,7.06
2023-03-13T04:55:17.873Z,7.15
2023-03-13T04:57:45.185Z,7.23
2023-03-13T05:00:13.504Z,7.25
2023-03-13T05:02:40.782Z,7.21
2023-03-13T05:05:08.742Z,7.26
2023-03-13T05:07:36.047Z,7.12
2023-03-13T05:10:03.767Z,7.19
2023-03-13T05:12:31.165Z,7.21
2023-03-13T05:14:58.765Z,7.30
2023-03-13T05:17:25.975Z,7.26
2023-03-13T05:19:53.639Z,7.33
2023-03-13T05:22:21.024Z,7.28
2023-03-13T05:24:48.556Z,7.29
2023-03-13T05:27:15.822Z,7.33
2023-03-13T05:29:43.410Z,7.45
2023-03-13T05:32:10.732Z,7.36
2023-03-13T05:34:38.297Z,7.34
2023-03-13T05:37:05.704Z,7.45
2023-03-13T05:39:33.315Z,7.49
2023-03-13T05:42:00.585Z,7.48
2023-03-13T05:44:28.177Z,7.42
2023-03-13T05:46:55.606Z,7.50
2023-03-13T05:49:23.229Z,7.50
2023-03-13T05:51:50.630Z,7.65
2023-03-13T05:54:18.211Z,7.79
2023-03-13T05:56:48.827Z,7.83
2023-03-13T05:59:16.593Z,7.86
2023-03-13T06:01:43.880Z,7.85
2023-03-13T06:04:11.768Z,7.95
2023-03-13T06:06:39.143Z,8.21
2023-03-13T06:09:06.680Z,8.37
2023-03-13T06:11:33.960Z,8.46
2023-03-13T06:14:01.513Z,8.48
2023-03-13T06:16:28.861Z,8.26
2023-03-13T06:18:56.426Z,8.29
2023-03-13T06:21:23.695Z,8.27
2023-03-13T06:23:51.190Z,8.24
2023-03-13T06:26:18.494Z,8.38
2023-03-13T06:28:46.781Z,8.20
2023-03-13T06:31:14.251Z,8.39
2023-03-13T06:33:41.937Z,8.58
2023-03-13T06:36:09.818Z,8.62
2023-03-13T06:38:37.347Z,8.78
2023-03-13T06:41:04.980Z,8.81
2023-03-13T06:43:32.561Z,8.95
2023-03-13T06:46:05.462Z,9.22
2023-03-13T06:48:33.568Z,9.41
2023-03-13T06:51:00.849Z,9.84
2023-03-13T06:53:28.447Z,9.90
2023-03-13T06:55:55.827Z,10.12
2023-03-13T06:58:32.162Z,10.23
2023-03-13T07:01:12.016Z,10.29
2023-03-13T07:03:43.841Z,10.34
2023-03-13T07:06:12.593Z,10.34
2023-03-13T07:08:40.667Z,10.50
2023-03-13T07:11:11.946Z,10.64
2023-03-13T07:13:39.995Z,10.84
2023-03-13T07:16:11.574Z,11.06
2023-03-13T07:18:44.852Z,11.11
2023-03-13T07:21:13.460Z,11.09
2023-03-13T07:23:41.721Z,10.94
2023-03-13T07:26:15.138Z,10.87
2023-03-13T07:28:43.855Z,10.91
2023-03-13T07:31:21.282Z,10.77
2023-03-13T07:33:48.962Z,11.09
2023-03-13T07:36:16.724Z,11.26
2023-03-13T07:38:48.408Z,11.56
2023-03-13T07:41:16.209Z,12.59
2023-03-13T07:43:43.860Z,15.20
2023-03-13T07:46:21.768Z,16.10
2023-03-13T07:48:49.801Z,17.82
2023-03-13T07:51:36.805Z,19.69
2023-03-13T07:54:08.328Z,20.77
2023-03-13T07:56:35.556Z,21.51
2023-03-13T07:59:03.115Z,22.15
2023-03-13T08:01:31.256Z,22.83
2023-03-13T08:04:02.108Z,23.24
2023-03-13T08:06:34.206Z,23.67
2023-03-13T08:09:02.420Z,23.22
2023-03-13T08:11:29.942Z,23.01
2023-03-13T08:13:58.044Z,23.44
2023-03-13T08:16:29.168Z,21.70
2023-03-13T08:18:59.009Z,20.47
2023-03-13T08:21:29.765Z,22.56
2023-03-13T08:24:01.468Z,21.80
2023-03-13T08:26:30.927Z,19.62
2023-03-13T08:29:02.333Z,23.28
2023-03-13T08:31:37.016Z,26.70
2023-03-13T08:34:05.098Z,22.81
2023-03-13T08:36:36.461Z,22.62
2023-03-13T08:39:12.731Z,24.89
2023-03-13T08:41:43.587Z,25.27
2023-03-13T08:44:15.534Z,22.83
2023-03-13T08:46:44.177Z,25.59
2023-03-13T08:49:12.669Z,24.55
2023-03-13T08:51:40.918Z,24.71
2023-03-13T08:54:08.560Z,25.28
2023-03-13T08:56:36.876Z,26.56
2023-03-13T08:59:07.265Z,26.54
2023-03-13T09:01:37.115Z,25.86
2023-03-13T09:04:05.998Z,25.25
2023-03-13T09:06:35.896Z,26.66
2023-03-13T09:09:05.603Z,29.24
2023-03-13T09:11:34.261Z,29.76
2023-03-13T09:14:01.899Z,27.59
2023-03-13T09:16:33.391Z,27.84
2023-03-13T09:19:02.063Z,31.20
2023-03-13T09:21:36.074Z,32.68
2023-03-13T09:24:04.378Z,33.55
2023-03-13T09:26:31.864Z,33.59
2023-03-13T09:28:59.860Z,34.95
2023-03-13T09:31:33.287Z,36.03
2023-03-13T09:34:01.655Z,36.31
2023-03-13T09:36:29.338Z,37.83
2023-03-13T09:39:00.183Z,39.03
2023-03-13T09:41:34.079Z,41.10
2023-03-13T09:44:26.892Z,39.56
2023-03-13T09:46:54.192Z,39.19
2023-03-13T09:49:39.829Z,31.64
2023-03-13T09:52:43.895Z,31.10
2023-03-13T09:55:21.569Z,26.42
2023-03-13T09:57:58.897Z,29.29
2023-03-13T10:00:48.904Z,30.52
2023-03-13T10:03:26.086Z,32.61
2023-03-13T10:06:04.760Z,33.76
2023-03-13T10:08:35.279Z,32.12
2023-03-13T10:11:19.820Z,34.58
2023-03-13T10:14:07.517Z,35.62
2023-03-13T10:16:49.142Z,35.47
2023-03-13T10:19:21.886Z,35.36
2023-03-13T10:21:56.057Z,36.14
2023-03-13T10:24:49.768Z,37.01
2023-03-13T10:27:17.611Z,38.90
2023-03-13T10:29:44.938Z,39.95
2023-03-13T10:32:16.751Z,42.76
2023-03-13T10:34:58.988Z,41.93
2023-03-13T10:37:42.648Z,34.91
2023-03-13T10:40:25.368Z,29.19
2023-03-13T10:43:02.289Z,26.68
2023-03-13T10:45:35.724Z,23.75
2023-03-13T10:48:19.464Z,21.81
2023-03-13T10:50:50.963Z,20.56
2023-03-13T10:53:25.952Z,19.44
2023-03-13T10:56:15.595Z,18.76
2023-03-13T10:58:53.795Z,18.22
2023-03-13T11:01:44.897Z,17.65
2023-03-13T11:04:42.210Z,17.44
2023-03-13T11:07:36.199Z,17.18
2023-03-13T11:10:27.087Z,17.10
2023-03-13T11:12:58.203Z,17.10
2023-03-13T11:16:15.254Z,16.81
2023-03-13T11:19:13.723Z,16.69
2023-03-13T11:22:05.103Z,16.12
2023-03-13T11:25:04.030Z,16.05
2023-03-13T11:27:43.570Z,16.12
2023-03-13T11:31:01.993Z,16.17
2023-03-13T11:33:53.598Z,16.29
2023-03-13T11:36:55.579Z,15.97
2023-03-13T11:40:01.196Z,15.83
2023-03-13T11:43:17.953Z,15.65
2023-03-13T11:46:05.887Z,16.05
2023-03-13T11:49:09.476Z,15.79
2023-03-13T11:52:32.940Z,15.79
2023-03-13T11:55:16.709Z,15.75
2023-03-13T11:58:11.897Z,15.67
2023-03-13T12:01:08.175Z,15.72
2023-03-13T12:04:05.953Z,15.55
2023-03-13T12:06:44.275Z,15.85
2023-03-13T12:09:28.272Z,15.93
2023-03-13T12:12:20.303Z,16.43
2023-03-13T12:15:16.191Z,16.62
2023-03-13T12:18:00.063Z,16.27
2023-03-13T12:20:39.937Z,16.13
2023-03-13T12:23:19.414Z,16.07
2023-03-13T12:26:06.455Z,15.83
2023-03-13T12:29:13.582Z,15.54
2023-03-13T12:31:57.408Z,15.35
2023-03-13T12:35:04.814Z,15.17
2023-03-13T12:38:06.745Z,15.01
2023-03-13T12:41:08.302Z,14.85
2023-03-13T12:43:42.482Z,14.48
2023-03-13T12:46:12.824Z,14.20
2023-03-13T12:49:21.808Z,14.08
2023-03-13T12:52:22.042Z,13.86
2023-03-13T12:55:26.589Z,13.72
2023-03-13T12:58:16.302Z,13.70
2023-03-13T13:00:48.424Z,13.63
2023-03-13T13:03:27.902Z,13.39
2023-03-13T13:06:13.321Z,13.38
2023-03-13T13:09:05.151Z,13.56
2023-03-13T13:11:38.997Z,13.57
2023-03-13T13:14:11.884Z,13.47
2023-03-13T13:16:46.569Z,13.29
2023-03-13T13:19:26.202Z,13.19
2023-03-13T13:22:36.708Z,13.15
2023-03-13T13:25:13.336Z,13.23
2023-03-13T13:27:40.816Z,13.20
2023-03-13T13:30:20.144Z,13.32
2023-03-13T13:32:54.589Z,13.16
2023-03-13T13:35:40.351Z,13.02
2023-03-13T13:38:19.766Z,13.04
2023-03-13T13:41:22.625Z,12.88
2023-03-13T13:44:24.850Z,12.87
2023-03-13T13:46:55.055Z,12.68
2023-03-13T13:49:36.241Z,12.79
2023-03-13T13:52:06.000Z,12.82
2023-03-13T13:54:42.884Z,12.66
2023-03-13T13:57:37.223Z,12.65
2023-03-13T14:00:20.936Z,12.39
2023-03-13T14:02:55.431Z,12.26
2023-03-13T14:05:30.716Z,12.21
2023-03-13T14:08:05.138Z,12.34
2023-03-13T14:10:42.335Z,12.34
2023-03-13T14:13:21.847Z,12.24
2023-03-13T14:15:53.793Z,12.04
2023-03-13T14:18:25.766Z,11.85
2023-03-13T14:21:03.353Z,11.46
2023-03-13T14:23:43.836Z,11.14
2023-03-13T14:26:18.033Z,10.93
2023-03-13T14:28:55.911Z,10.94
2023-03-13T14:31:28.903Z,10.77
2023-03-13T14:33:59.432Z,10.68
2023-03-13T14:36:45.323Z,10.71
2023-03-13T14:39:37.933Z,10.84
2023-03-13T14:42:12.028Z,10.96
2023-03-13T14:44:42.986Z,11.04
2023-03-13T14:47:32.846Z,11.17
2023-03-13T14:50:05.029Z,11.23
2023-03-13T14:52:34.319Z,11.34
2023-03-13T14:55:06.504Z,11.35
2023-03-13T14:57:35.700Z,11.43
2023-03-13T15:00:36.745Z,11.52
2023-03-13T15:03:21.442Z,11.66
2023-03-13T15:06:07.377Z,11.66
2023-03-13T15:08:45.702Z,11.77
2023-03-13T15:11:34.854Z,11.69
2023-03-13T15:14:05.253Z,11.87
2023-03-13T15:16:32.663Z,11.90
2023-03-13T15:19:00.417Z,11.92
2023-03-13T15:21:34.166Z,12.07
2023-03-13T15:24:15.334Z,12.05
2023-03-13T15:26:42.598Z,12.02
2023-03-13T15:29:13.260Z,12.08
2023-03-13T15:31:40.749Z,11.91
2023-03-13T15:34:16.364Z,11.98
2023-03-13T15:36:43.763Z,12.02
2023-03-13T15:39:19.502Z,11.91
2023-03-13T15:41:46.977Z,11.73
2023-03-13T15:44:15.008Z,11.84
2023-03-13T15:46:42.579Z,11.77
2023-03-13T15:49:13.372Z,11.70
2023-03-13T15:51:40.682Z,11.64
2023-03-13T15:54:08.305Z,11.66
2023-03-13T15:56:38.646Z,11.77
2023-03-13T15:59:14.341Z,11.58
2023-03-13T16:01:43.937Z,11.56
2023-03-13T16:04:12.094Z,11.57
2023-03-13T16:06:39.467Z,11.57
2023-03-13T16:09:07.991Z,11.62
2023-03-13T16:11:35.661Z,11.54
2023-03-13T16:14:03.435Z,11.60
2023-03-13T16:16:37.278Z,11.48
2023-03-13T16:19:07.604Z,11.46
2023-03-13T16:21:36.172Z,11.58
2023-03-13T16:24:04.089Z,11.50
2023-03-13T16:26:32.849Z,11.42
2023-03-13T16:29:01.498Z,11.49
2023-03-13T16:31:32.722Z,11.44
2023-03-13T16:34:02.373Z,11.38
2023-03-13T16:36:33.420Z,11.39
2023-03-13T16:39:06.127Z,11.39
2023-03-13T16:41:33.489Z,11.36
2023-03-13T16:44:02.817Z,11.44
2023-03-13T16:46:55.595Z,11.25
2023-03-13T16:49:31.873Z,11.26
2023-03-13T16:51:59.157Z,11.27
2023-03-13T16:54:26.739Z,11.23
2023-03-13T16:56:54.139Z,11.23
2023-03-13T16:59:23.322Z,11.44
2023-03-13T17:01:50.844Z,11.37
2023-03-13T17:04:18.531Z,11.27
2023-03-13T17:06:46.835Z,11.32
2023-03-13T17:09:18.007Z,11.38
2023-03-13T17:11:45.986Z,11.28
2023-03-13T17:14:13.716Z,11.35
2023-03-13T17:16:46.266Z,11.30
2023-03-13T17:19:15.511Z,11.42
2023-03-13T17:21:43.148Z,11.41
2023-03-13T17:24:10.768Z,11.41
2023-03-13T17:26:40.257Z,11.31
2023-03-13T17:29:14.516Z,11.37
2023-03-13T17:31:41.935Z,11.43
2023-03-13T17:34:10.084Z,11.39
2023-03-13T17:36:37.598Z,11.33
2023-03-13T17:39:08.912Z,11.41
2023-03-13T17:41:36.483Z,11.54
2023-03-13T17:44:04.359Z,11.58
2023-03-13T17:46:38.193Z,11.63
2023-03-13T17:49:06.000Z,11.49
2023-03-13T17:51:36.254Z,11.52
2023-03-13T17:54:15.652Z,11.46
2023-03-13T17:56:45.122Z,11.49
2023-03-13T17:59:21.513Z,11.47
2023-03-13T18:01:49.024Z,11.56
2023-03-13T18:04:16.677Z,11.52
2023-03-13T18:06:48.777Z,11.51
2023-03-13T18:09:22.112Z,11.59
2023-03-13T18:11:50.183Z,11.56
2023-03-13T18:14:17.966Z,11.62
2023-03-13T18:16:50.367Z,11.61
2023-03-13T18:19:24.011Z,11.61
2023-03-13T18:21:55.411Z,11.57
2023-03-13T18:24:23.256Z,11.48
2023-03-13T18:26:50.948Z,11.58
2023-03-13T18:29:29.255Z,11.53
2023-03-13T18:32:00.628Z,11.53
2023-03-13T18:34:29.065Z,11.44
2023-03-13T18:36:57.242Z,11.45
2023-03-13T18:39:24.819Z,11.39
2023-03-13T18:41:52.830Z,11.43
2023-03-13T18:44:21.128Z,11.43
2023-03-13T18:46:50.665Z,11.44
2023-03-13T18:49:22.443Z,11.61
2023-03-13T18:51:53.659Z,11.73
2023-03-13T18:54:21.359Z,11.78
2023-03-13T18:56:48.778Z,11.88
2023-03-13T18:59:20.999Z,11.79
2023-03-13T19:01:49.409Z,11.89
2023-03-13T19:04:19.100Z,11.96
2023-03-13T19:06:48.333Z,11.96
2023-03-13T19:09:42.739Z,11.97
2023-03-13T19:12:07.891Z,11.93
2023-03-13T19:14:35.554Z,12.03
2023-03-13T19:17:04.123Z,12.01
2023-03-13T19:19:32.080Z,12.00
2023-03-13T19:21:59.406Z,11.94
2023-03-13T19:24:27.480Z,11.98
2023-03-13T19:26:59.242Z,12.03
2023-03-13T19:29:29.042Z,11.95
2023-03-13T19:31:56.789Z,12.02
2023-03-13T19:34:24.582Z,12.10
2023-03-13T19:36:53.494Z,12.02
2023-03-13T19:39:24.387Z,12.14
2023-03-13T19:41:53.189Z,12.09
2023-03-13T19:44:22.328Z,12.15
2023-03-13T19:46:49.993Z,12.19
2023-03-13T19:49:20.989Z,12.20
2023-03-13T19:51:49.300Z,12.29
2023-03-13T19:54:17.100Z,12.12
2023-03-13T19:56:49.866Z,12.12
2023-03-13T19:59:24.000Z,12.09
2023-03-13T20:01:51.480Z,12.16
2023-03-13T20:04:19.172Z,12.16
2023-03-13T20:06:46.568Z,12.18
2023-03-13T20:09:17.869Z,12.25
2023-03-13T20:11:45.387Z,12.30
2023-03-13T20:14:13.472Z,12.33
2023-03-13T20:16:40.805Z,12.49
2023-03-13T20:19:08.484Z,12.49
2023-03-13T20:21:41.334Z,12.56
2023-03-13T20:24:10.591Z,12.51
2023-03-13T20:26:38.050Z,12.51
2023-03-13T20:29:05.790Z,12.55
2023-03-13T20:31:33.474Z,12.62
2023-03-13T20:34:01.190Z,12.67
2023-03-13T20:36:28.685Z,12.58
2023-03-13T20:38:57.112Z,12.65
2023-03-13T20:41:28.774Z,12.75
2023-03-13T20:43:56.359Z,12.72
2023-03-13T20:46:23.772Z,12.72
2023-03-13T20:48:51.382Z,12.76
2023-03-13T20:51:18.682Z,12.84
2023-03-13T20:53:46.316Z,12.70
2023-03-13T20:56:13.943Z,12.70
2023-03-13T20:58:41.567Z,12.60
2023-03-13T21:01:09.233Z,12.63
2023-03-13T21:03:37.344Z,12.52
2023-03-13T21:06:18.153Z,12.56
2023-03-13T21:08:47.118Z,12.54
2023-03-13T21:11:17.694Z,12.61
2023-03-13T21:13:45.918Z,12.58
2023-03-13T21:16:14.479Z,12.73
2023-03-13T21:18:42.732Z,12.60
2023-03-13T21:21:17.112Z,12.53
2023-03-13T21:23:46.285Z,12.55
2023-03-13T21:26:14.995Z,12.49
2023-03-13T21:28:42.687Z,12.43
2023-03-13T21:31:12.708Z,12.41
2023-03-13T21:33:42.274Z,12.32
2023-03-13T21:36:12.531Z,12.36
2023-03-13T21:38:40.322Z,12.27
2023-03-13T21:41:13.762Z,12.36
2023-03-13T21:43:43.104Z,12.27
2023-03-13T21:46:14.207Z,12.29
2023-03-13T21:51:13.470Z,12.21
2023-03-13T21:53:44.698Z,12.11
2023-03-13T21:56:16.748Z,12.14
2023-03-13T21:58:45.611Z,12.20
2023-03-13T22:01:14.871Z,12.13
2023-03-13T22:03:42.617Z,12.20
2023-03-13T22:06:16.149Z,12.20
2023-03-13T22:08:44.210Z,12.15
2023-03-13T22:11:11.900Z,12.01
2023-03-13T22:13:39.627Z,12.15
2023-03-13T22:16:08.069Z,12.07
2023-03-13T22:18:35.755Z,12.02
2023-03-13T22:21:03.362Z,12.07
2023-03-13T22:23:30.942Z,12.21
2023-03-13T22:25:59.280Z,12.16
2023-03-13T22:28:28.018Z,12.25
2023-03-13T22:30:55.340Z,12.24
2023-03-13T22:33:23.073Z,12.27
2023-03-13T22:35:54.967Z,12.28
2023-03-13T22:38:23.229Z,12.15
2023-03-13T22:41:03.062Z,12.40
2023-03-13T22:43:31.095Z,12.40
2023-03-13T22:45:59.829Z,12.31
2023-03-13T22:48:27.496Z,12.26
2023-03-13T22:51:09.598Z,12.17
2023-03-13T22:53:39.770Z,12.23
2023-03-13T22:56:10.098Z,12.08
2023-03-13T22:58:39.171Z,12.24
2023-03-13T23:01:26.745Z,12.12
2023-03-13T23:03:54.439Z,11.99
2023-03-13T23:06:25.842Z,12.04
2023-03-13T23:08:54.019Z,12.11
2023-03-13T23:11:26.538Z,12.13
2023-03-13T23:13:54.105Z,12.08
2023-03-13T23:16:21.613Z,12.13
2023-03-13T23:18:49.320Z,12.14
2023-03-13T23:21:17.250Z,12.18
2023-03-13T23:23:45.891Z,12.27
2023-03-13T23:26:16.135Z,12.18
2023-03-13T23:28:43.955Z,12.22
2023-03-13T23:31:20.872Z,12.06
2023-03-13T23:33:49.733Z,12.03
2023-03-13T23:36:19.706Z,12.03
2023-03-13T23:38:52.951Z,12.06
2023-03-13T23:41:21.816Z,11.98
2023-03-13T23:43:49.425Z,11.97
2023-03-13T23:46:23.260Z,12.04
2023-03-13T23:48:58.617Z,11.94
2023-03-13T23:51:26.590Z,11.93
2023-03-13T23:53:54.136Z,11.99
2023-03-13T23:56:22.116Z,11.93
2023-03-13T23:58:49.649Z,11.98
